sensor_id;sensor_type;location;lat;lon;timestamp;pressure;altitude;pressure_sealevel;temperature;humidity
69411;BME280;56604;48.652;9.194;2023-09-18T00:00:20;95716.56;;;20.94;68.51
69411;BME280;56604;48.652;9.194;2023-09-18T00:02:47;95725.06;;;20.96;68.42
69411;BME280;56604;48.652;9.194;2023-09-18T00:05:12;95712.03;;;20.95;68.49
69411;BME280;56604;48.652;9.194;2023-09-18T00:07:39;95717.03;;;20.96;68.44
69411;BME280;56604;48.652;9.194;2023-09-18T00:10:05;95719.06;;;20.99;67.92
69411;BME280;56604;48.652;9.194;2023-09-18T00:12:30;95710.84;;;21.04;67.34
69411;BME280;56604;48.652;9.194;2023-09-18T00:14:55;95705.03;;;21.02;67.57
69411;BME280;56604;48.652;9.194;2023-09-18T00:17:21;95694.69;;;21.01;66.94
69411;BME280;56604;48.652;9.194;2023-09-18T00:19:48;95691.34;;;21.04;66.60
69411;BME280;56604;48.652;9.194;2023-09-18T00:22:13;95691.00;;;21.05;66.67
69411;BME280;56604;48.652;9.194;2023-09-18T00:24:38;95693.69;;;21.05;66.47
69411;BME280;56604;48.652;9.194;2023-09-18T00:27:03;95685.53;;;21.02;66.41
69411;BME280;56604;48.652;9.194;2023-09-18T00:29:29;95691.44;;;20.95;66.71
69411;BME280;56604;48.652;9.194;2023-09-18T00:31:54;95692.88;;;20.93;67.00
69411;BME280;56604;48.652;9.194;2023-09-18T00:34:19;95684.66;;;20.98;66.63
69411;BME280;56604;48.652;9.194;2023-09-18T00:36:45;95682.88;;;21.02;66.58
69411;BME280;56604;48.652;9.194;2023-09-18T00:39:10;95689.19;;;20.97;66.90
69411;BME280;56604;48.652;9.194;2023-09-18T00:41:36;95680.09;;;20.98;67.31
69411;BME280;56604;48.652;9.194;2023-09-18T00:44:01;95681.53;;;20.96;67.63
69411;BME280;56604;48.652;9.194;2023-09-18T00:46:27;95680.09;;;20.98;67.54
69411;BME280;56604;48.652;9.194;2023-09-18T00:48:53;95681.91;;;21.06;67.18
69411;BME280;56604;48.652;9.194;2023-09-18T00:51:18;95672.09;;;21.10;66.85
69411;BME280;56604;48.652;9.194;2023-09-18T00:53:45;95675.34;;;21.16;66.59
69411;BME280;56604;48.652;9.194;2023-09-18T00:56:13;95675.91;;;21.22;66.39
69411;BME280;56604;48.652;9.194;2023-09-18T00:58:39;95676.78;;;21.26;66.09
69411;BME280;56604;48.652;9.194;2023-09-18T01:01:04;95677.25;;;21.28;66.62
69411;BME280;56604;48.652;9.194;2023-09-18T01:03:30;95680.38;;;21.30;65.97
69411;BME280;56604;48.652;9.194;2023-09-18T01:05:55;95675.03;;;21.30;66.54
69411;BME280;56604;48.652;9.194;2023-09-18T01:08:22;95683.94;;;21.34;67.26
69411;BME280;56604;48.652;9.194;2023-09-18T01:11:01;95686.63;;;21.34;66.97
69411;BME280;56604;48.652;9.194;2023-09-18T01:13:37;95685.06;;;21.33;67.22
69411;BME280;56604;48.652;9.194;2023-09-18T01:16:23;95682.38;;;21.21;68.20
69411;BME280;56604;48.652;9.194;2023-09-18T01:18:50;95677.91;;;21.25;68.20
69411;BME280;56604;48.652;9.194;2023-09-18T01:21:17;95675.03;;;21.30;67.12
69411;BME280;56604;48.652;9.194;2023-09-18T01:23:43;95683.75;;;21.39;66.53
69411;BME280;56604;48.652;9.194;2023-09-18T01:26:08;95671.72;;;21.45;66.20
69411;BME280;56604;48.652;9.194;2023-09-18T01:28:34;95665.41;;;21.38;65.38
69411;BME280;56604;48.652;9.194;2023-09-18T01:30:59;95666.16;;;21.38;65.89
69411;BME280;56604;48.652;9.194;2023-09-18T01:33:25;95676.88;;;21.38;66.30
69411;BME280;56604;48.652;9.194;2023-09-18T01:35:52;95691.66;;;21.36;66.27
69411;BME280;56604;48.652;9.194;2023-09-18T01:38:21;95687.94;;;21.28;66.37
69411;BME280;56604;48.652;9.194;2023-09-18T01:40:47;95692.31;;;21.32;66.91
69411;BME280;56604;48.652;9.194;2023-09-18T01:43:13;95711.63;;;21.38;66.82
69411;BME280;56604;48.652;9.194;2023-09-18T01:45:38;95759.69;;;21.47;65.82
69411;BME280;56604;48.652;9.194;2023-09-18T01:48:05;95749.25;;;21.33;66.67
69411;BME280;56604;48.652;9.194;2023-09-18T01:50:31;95745.28;;;21.39;66.21
69411;BME280;56604;48.652;9.194;2023-09-18T01:52:58;95729.94;;;21.27;66.56
69411;BME280;56604;48.652;9.194;2023-09-18T01:55:24;95733.59;;;21.23;67.96
69411;BME280;56604;48.652;9.194;2023-09-18T01:57:49;95714.91;;;20.69;75.04
69411;BME280;56604;48.652;9.194;2023-09-18T02:00:15;95694.94;;;20.45;76.72
69411;BME280;56604;48.652;9.194;2023-09-18T02:02:40;95673.47;;;20.41;76.45
69411;BME280;56604;48.652;9.194;2023-09-18T02:05:06;95661.66;;;20.21;77.66
69411;BME280;56604;48.652;9.194;2023-09-18T02:07:31;95641.41;;;20.20;77.21
69411;BME280;56604;48.652;9.194;2023-09-18T02:09:57;95626.84;;;20.18;77.30
69411;BME280;56604;48.652;9.194;2023-09-18T02:12:22;95617.13;;;20.13;77.65
69411;BME280;56604;48.652;9.194;2023-09-18T02:14:48;95613.94;;;20.20;77.21
69411;BME280;56604;48.652;9.194;2023-09-18T02:17:13;95604.16;;;20.03;78.19
69411;BME280;56604;48.652;9.194;2023-09-18T02:19:38;95610.03;;;20.17;77.80
69411;BME280;56604;48.652;9.194;2023-09-18T02:22:04;95597.19;;;20.32;75.87
69411;BME280;56604;48.652;9.194;2023-09-18T02:24:29;95590.56;;;20.38;75.35
69411;BME280;56604;48.652;9.194;2023-09-18T02:26:54;95594.13;;;20.42;74.58
69411;BME280;56604;48.652;9.194;2023-09-18T02:29:19;95585.31;;;20.08;75.31
69411;BME280;56604;48.652;9.194;2023-09-18T02:31:45;95595.50;;;20.06;75.18
69411;BME280;56604;48.652;9.194;2023-09-18T02:34:11;95603.63;;;19.89;77.26
69411;BME280;56604;48.652;9.194;2023-09-18T02:36:36;95597.75;;;19.74;78.11
69411;BME280;56604;48.652;9.194;2023-09-18T02:39:02;95602.09;;;19.88;77.79
69411;BME280;56604;48.652;9.194;2023-09-18T02:41:27;95604.41;;;19.89;77.83
69411;BME280;56604;48.652;9.194;2023-09-18T02:43:53;95611.47;;;19.94;77.63
69411;BME280;56604;48.652;9.194;2023-09-18T02:46:18;95615.06;;;19.98;78.29
69411;BME280;56604;48.652;9.194;2023-09-18T02:48:43;95625.31;;;19.87;79.41
69411;BME280;56604;48.652;9.194;2023-09-18T02:51:09;95626.78;;;19.76;80.58
69411;BME280;56604;48.652;9.194;2023-09-18T02:53:34;95624.78;;;19.64;81.34
69411;BME280;56604;48.652;9.194;2023-09-18T02:55:59;95622.78;;;19.61;80.52
69411;BME280;56604;48.652;9.194;2023-09-18T02:58:25;95616.31;;;19.62;80.89
69411;BME280;56604;48.652;9.194;2023-09-18T03:00:52;95622.38;;;19.42;80.22
69411;BME280;56604;48.652;9.194;2023-09-18T03:03:18;95630.56;;;19.37;79.75
69411;BME280;56604;48.652;9.194;2023-09-18T03:05:44;95628.91;;;19.15;80.33
69411;BME280;56604;48.652;9.194;2023-09-18T03:08:10;95617.94;;;19.16;81.25
69411;BME280;56604;48.652;9.194;2023-09-18T03:10:38;95615.16;;;19.13;82.77
69411;BME280;56604;48.652;9.194;2023-09-18T03:13:05;95619.88;;;19.07;82.41
69411;BME280;56604;48.652;9.194;2023-09-18T03:15:31;95608.59;;;19.01;82.39
69411;BME280;56604;48.652;9.194;2023-09-18T03:17:58;95620.94;;;19.06;81.15
69411;BME280;56604;48.652;9.194;2023-09-18T03:20:24;95607.78;;;19.01;81.15
69411;BME280;56604;48.652;9.194;2023-09-18T03:22:54;95604.19;;;19.05;80.66
69411;BME280;56604;48.652;9.194;2023-09-18T03:25:20;95611.88;;;19.07;80.29
69411;BME280;56604;48.652;9.194;2023-09-18T03:27:46;95616.09;;;19.08;80.43
69411;BME280;56604;48.652;9.194;2023-09-18T03:30:11;95619.88;;;19.07;79.89
69411;BME280;56604;48.652;9.194;2023-09-18T03:32:42;95620.31;;;19.09;79.86
69411;BME280;56604;48.652;9.194;2023-09-18T03:35:09;95633.47;;;19.14;79.74
69411;BME280;56604;48.652;9.194;2023-09-18T03:37:47;95643.47;;;19.17;80.55
69411;BME280;56604;48.652;9.194;2023-09-18T03:40:13;95654.13;;;19.17;80.11
69411;BME280;56604;48.652;9.194;2023-09-18T03:42:39;95676.41;;;19.21;79.96
69411;BME280;56604;48.652;9.194;2023-09-18T03:45:08;95686.09;;;19.26;79.50
69411;BME280;56604;48.652;9.194;2023-09-18T03:47:34;95696.72;;;19.35;78.59
69411;BME280;56604;48.652;9.194;2023-09-18T03:50:01;95714.59;;;19.43;77.82
69411;BME280;56604;48.652;9.194;2023-09-18T03:52:26;95730.59;;;19.43;77.21
69411;BME280;56604;48.652;9.194;2023-09-18T03:54:52;95743.41;;;19.49;75.75
69411;BME280;56604;48.652;9.194;2023-09-18T03:57:18;95741.69;;;19.53;75.53
69411;BME280;56604;48.652;9.194;2023-09-18T03:59:43;95725.19;;;19.60;75.75
69411;BME280;56604;48.652;9.194;2023-09-18T04:02:08;95720.63;;;19.61;74.98
69411;BME280;56604;48.652;9.194;2023-09-18T04:04:33;95720.50;;;19.57;75.52
69411;BME280;56604;48.652;9.194;2023-09-18T04:06:59;95730.53;;;19.60;75.51
69411;BME280;56604;48.652;9.194;2023-09-18T04:09:24;95727.41;;;19.58;75.60
69411;BME280;56604;48.652;9.194;2023-09-18T04:11:49;95730.53;;;19.60;75.54
69411;BME280;56604;48.652;9.194;2023-09-18T04:14:15;95722.56;;;19.51;75.93
69411;BME280;56604;48.652;9.194;2023-09-18T04:16:40;95704.88;;;19.47;76.26
69411;BME280;56604;48.652;9.194;2023-09-18T04:19:08;95695.75;;;19.48;76.21
69411;BME280;56604;48.652;9.194;2023-09-18T04:21:35;95680.03;;;19.55;76.14
69411;BME280;56604;48.652;9.194;2023-09-18T04:24:01;95674.84;;;19.67;75.45
69411;BME280;56604;48.652;9.194;2023-09-18T04:26:26;95679.22;;;19.72;75.24
69411;BME280;56604;48.652;9.194;2023-09-18T04:28:59;95668.88;;;19.70;75.63
69411;BME280;56604;48.652;9.194;2023-09-18T04:31:25;95659.63;;;19.59;75.65
69411;BME280;56604;48.652;9.194;2023-09-18T04:33:50;95646.63;;;19.58;75.91
69411;BME280;56604;48.652;9.194;2023-09-18T04:36:15;95644.09;;;19.61;76.04
69411;BME280;56604;48.652;9.194;2023-09-18T04:38:41;95644.94;;;19.53;75.99
69411;BME280;56604;48.652;9.194;2023-09-18T04:41:06;95650.13;;;19.41;76.70
69411;BME280;56604;48.652;9.194;2023-09-18T04:43:33;95657.66;;;19.47;75.83
69411;BME280;56604;48.652;9.194;2023-09-18T04:46:00;95654.09;;;19.35;76.36
69411;BME280;56604;48.652;9.194;2023-09-18T04:48:25;95640.66;;;19.22;77.33
69411;BME280;56604;48.652;9.194;2023-09-18T04:50:50;95652.25;;;19.18;77.88
69411;BME280;56604;48.652;9.194;2023-09-18T04:53:16;95638.78;;;19.14;78.31
69411;BME280;56604;48.652;9.194;2023-09-18T04:55:41;95633.50;;;18.97;79.33
69411;BME280;56604;48.652;9.194;2023-09-18T04:58:06;95663.13;;;18.86;79.94
69411;BME280;56604;48.652;9.194;2023-09-18T05:00:32;95661.75;;;18.80;80.51
69411;BME280;56604;48.652;9.194;2023-09-18T05:02:59;95666.16;;;18.76;80.47
69411;BME280;56604;48.652;9.194;2023-09-18T05:05:26;95661.75;;;18.80;80.68
69411;BME280;56604;48.652;9.194;2023-09-18T05:07:52;95668.31;;;18.57;81.79
69411;BME280;56604;48.652;9.194;2023-09-18T05:10:17;95670.97;;;18.57;82.29
69411;BME280;56604;48.652;9.194;2023-09-18T05:12:43;95671.47;;;18.59;81.98
69411;BME280;56604;48.652;9.194;2023-09-18T05:15:09;95656.41;;;18.46;83.46
69411;BME280;56604;48.652;9.194;2023-09-18T05:17:45;95652.50;;;18.43;82.82
69411;BME280;56604;48.652;9.194;2023-09-18T05:20:17;95656.91;;;18.48;83.01
69411;BME280;56604;48.652;9.194;2023-09-18T05:22:43;95654.69;;;18.50;82.75
69411;BME280;56604;48.652;9.194;2023-09-18T05:25:09;95667.06;;;18.63;82.33
69411;BME280;56604;48.652;9.194;2023-09-18T05:27:35;95673.34;;;18.76;82.21
69411;BME280;56604;48.652;9.194;2023-09-18T05:30:01;95665.78;;;18.69;81.85
69411;BME280;56604;48.652;9.194;2023-09-18T05:32:27;95661.41;;;18.73;81.83
69411;BME280;56604;48.652;9.194;2023-09-18T05:34:52;95662.38;;;18.77;81.35
69411;BME280;56604;48.652;9.194;2023-09-18T05:37:17;95663.31;;;18.81;81.28
69411;BME280;56604;48.652;9.194;2023-09-18T05:39:43;95673.63;;;18.92;80.75
69411;BME280;56604;48.652;9.194;2023-09-18T05:42:08;95670.94;;;19.00;80.52
69411;BME280;56604;48.652;9.194;2023-09-18T05:44:33;95671.28;;;18.99;80.98
69411;BME280;56604;48.652;9.194;2023-09-18T05:46:59;95677.06;;;19.01;81.13
69411;BME280;56604;48.652;9.194;2023-09-18T05:49:24;95677.53;;;19.03;80.73
69411;BME280;56604;48.652;9.194;2023-09-18T05:51:49;95669.22;;;19.13;80.64
69411;BME280;56604;48.652;9.194;2023-09-18T05:54:14;95668.09;;;19.14;80.38
69411;BME280;56604;48.652;9.194;2023-09-18T05:56:40;95677.22;;;19.13;80.72
69411;BME280;56604;48.652;9.194;2023-09-18T05:59:05;95669.06;;;19.18;80.48
69411;BME280;56604;48.652;9.194;2023-09-18T06:01:31;95664.31;;;19.15;80.68
69411;BME280;56604;48.652;9.194;2023-09-18T06:03:58;95666.03;;;19.28;80.33
69411;BME280;56604;48.652;9.194;2023-09-18T06:06:23;95664.16;;;19.20;80.24
69411;BME280;56604;48.652;9.194;2023-09-18T06:08:50;95653.50;;;19.20;80.53
69411;BME280;56604;48.652;9.194;2023-09-18T06:11:15;95653.50;;;19.20;80.89
69411;BME280;56604;48.652;9.194;2023-09-18T06:13:40;95651.81;;;19.16;81.33
69411;BME280;56604;48.652;9.194;2023-09-18T06:16:06;95656.50;;;19.19;81.50
69411;BME280;56604;48.652;9.194;2023-09-18T06:18:33;95653.28;;;19.43;80.43
69411;BME280;56604;48.652;9.194;2023-09-18T06:20:58;95651.16;;;19.57;79.48
69411;BME280;56604;48.652;9.194;2023-09-18T06:23:23;95648.00;;;19.72;79.09
69411;BME280;56604;48.652;9.194;2023-09-18T06:25:49;95646.94;;;19.56;79.27
69411;BME280;56604;48.652;9.194;2023-09-18T06:28:20;95645.50;;;19.67;79.26
69411;BME280;56604;48.652;9.194;2023-09-18T06:30:45;95641.28;;;19.58;78.86
69411;BME280;56604;48.652;9.194;2023-09-18T06:33:11;95658.44;;;19.48;79.64
69411;BME280;56604;48.652;9.194;2023-09-18T06:35:37;95663.75;;;19.48;80.08
69411;BME280;56604;48.652;9.194;2023-09-18T06:38:03;95673.16;;;19.54;80.63
69411;BME280;56604;48.652;9.194;2023-09-18T06:40:30;95677.69;;;19.53;81.01
69411;BME280;56604;48.652;9.194;2023-09-18T06:42:59;95681.16;;;19.54;81.33
69411;BME280;56604;48.652;9.194;2023-09-18T06:45:25;95683.50;;;19.55;81.04
69411;BME280;56604;48.652;9.194;2023-09-18T06:47:51;95674.59;;;19.43;82.13
69411;BME280;56604;48.652;9.194;2023-09-18T06:50:18;95685.91;;;19.40;82.35
69411;BME280;56604;48.652;9.194;2023-09-18T06:52:43;95687.94;;;19.43;82.75
69411;BME280;56604;48.652;9.194;2023-09-18T06:55:09;95695.41;;;19.58;82.98
69411;BME280;56604;48.652;9.194;2023-09-18T06:57:34;95701.72;;;19.45;84.19
69411;BME280;56604;48.652;9.194;2023-09-18T06:59:59;95696.19;;;19.59;84.39
69411;BME280;56604;48.652;9.194;2023-09-18T07:02:25;95689.16;;;19.54;84.04
69411;BME280;56604;48.652;9.194;2023-09-18T07:04:50;95684.44;;;19.51;84.51
69411;BME280;56604;48.652;9.194;2023-09-18T07:07:16;95680.38;;;19.53;84.96
69411;BME280;56604;48.652;9.194;2023-09-18T07:09:42;95684.75;;;19.58;83.91
69411;BME280;56604;48.652;9.194;2023-09-18T07:12:10;95677.06;;;19.65;83.80
69411;BME280;56604;48.652;9.194;2023-09-18T07:14:36;95679.63;;;19.83;83.18
69411;BME280;56604;48.652;9.194;2023-09-18T07:17:03;95675.59;;;19.76;82.68
69411;BME280;56604;48.652;9.194;2023-09-18T07:19:28;95677.09;;;19.86;83.20
69411;BME280;56604;48.652;9.194;2023-09-18T07:21:55;95678.25;;;20.06;82.46
69411;BME280;56604;48.652;9.194;2023-09-18T07:24:20;95676.59;;;19.93;83.11
69411;BME280;56604;48.652;9.194;2023-09-18T07:26:47;95677.31;;;19.81;82.55
69411;BME280;56604;48.652;9.194;2023-09-18T07:29:15;95685.06;;;19.65;83.04
69411;BME280;56604;48.652;9.194;2023-09-18T07:31:44;95701.41;;;19.93;82.89
69411;BME280;56604;48.652;9.194;2023-09-18T07:34:10;95708.44;;;19.98;82.65
69411;BME280;56604;48.652;9.194;2023-09-18T07:36:36;95713.31;;;19.96;82.83
69411;BME280;56604;48.652;9.194;2023-09-18T07:39:02;95711.25;;;20.02;81.75
69411;BME280;56604;48.652;9.194;2023-09-18T07:41:27;95722.88;;;19.97;81.52
69411;BME280;56604;48.652;9.194;2023-09-18T07:43:52;95733.06;;;19.95;81.07
69411;BME280;56604;48.652;9.194;2023-09-18T07:46:18;95725.13;;;20.16;80.76
69411;BME280;56604;48.652;9.194;2023-09-18T07:48:43;95712.97;;;20.27;80.12
69411;BME280;56604;48.652;9.194;2023-09-18T07:51:12;95725.16;;;20.37;79.07
69411;BME280;56604;48.652;9.194;2023-09-18T07:53:37;95714.75;;;20.44;79.13
69411;BME280;56604;48.652;9.194;2023-09-18T07:56:03;95717.53;;;20.56;78.25
69411;BME280;56604;48.652;9.194;2023-09-18T07:58:30;95723.22;;;20.88;77.57
69411;BME280;56604;48.652;9.194;2023-09-18T08:00:55;95735.03;;;20.87;76.36
69411;BME280;56604;48.652;9.194;2023-09-18T08:03:22;95742.41;;;20.90;76.55
69411;BME280;56604;48.652;9.194;2023-09-18T08:05:50;95748.72;;;20.85;76.42
69411;BME280;56604;48.652;9.194;2023-09-18T08:08:16;95743.94;;;21.12;76.47
69411;BME280;56604;48.652;9.194;2023-09-18T08:10:42;95756.88;;;20.89;75.89
69411;BME280;56604;48.652;9.194;2023-09-18T08:13:07;95753.44;;;21.22;75.10
69411;BME280;56604;48.652;9.194;2023-09-18T08:15:32;95779.13;;;21.14;75.19
69411;BME280;56604;48.652;9.194;2023-09-18T08:17:58;95789.56;;;21.28;74.21
69411;BME280;56604;48.652;9.194;2023-09-18T08:20:26;95800.41;;;20.89;74.49
69411;BME280;56604;48.652;9.194;2023-09-18T08:22:51;95801.50;;;20.67;76.11
69411;BME280;56604;48.652;9.194;2023-09-18T08:25:17;95796.41;;;20.45;76.36
69411;BME280;56604;48.652;9.194;2023-09-18T08:27:42;95801.13;;;20.78;75.17
69411;BME280;56604;48.652;9.194;2023-09-18T08:30:12;95804.13;;;20.76;74.85
69411;BME280;56604;48.652;9.194;2023-09-18T08:32:38;95803.88;;;20.69;75.82
69411;BME280;56604;48.652;9.194;2023-09-18T08:35:05;95812.44;;;20.45;76.88
69411;BME280;56604;48.652;9.194;2023-09-18T08:37:30;95809.72;;;20.24;77.63
69411;BME280;56604;48.652;9.194;2023-09-18T08:39:56;95798.19;;;20.03;78.03
69411;BME280;56604;48.652;9.194;2023-09-18T08:42:21;95807.88;;;19.69;79.62
69411;BME280;56604;48.652;9.194;2023-09-18T08:44:49;95804.31;;;19.39;82.49
69411;BME280;56604;48.652;9.194;2023-09-18T08:47:17;95799.28;;;19.28;83.49
69411;BME280;56604;48.652;9.194;2023-09-18T08:49:44;95806.66;;;19.14;85.44
69411;BME280;56604;48.652;9.194;2023-09-18T08:52:11;95820.47;;;18.90;86.37
69411;BME280;56604;48.652;9.194;2023-09-18T08:54:38;95818.44;;;18.96;87.02
69411;BME280;56604;48.652;9.194;2023-09-18T08:57:03;95818.72;;;18.77;88.23
69411;BME280;56604;48.652;9.194;2023-09-18T08:59:33;95830.69;;;18.48;88.64
69411;BME280;56604;48.652;9.194;2023-09-18T09:02:00;95828.00;;;18.31;90.88
69411;BME280;56604;48.652;9.194;2023-09-18T09:04:25;95831.97;;;18.51;90.43
69411;BME280;56604;48.652;9.194;2023-09-18T09:06:51;95827.81;;;18.27;89.89
69411;BME280;56604;48.652;9.194;2023-09-18T09:09:16;95831.41;;;18.23;91.53
69411;BME280;56604;48.652;9.194;2023-09-18T09:11:50;95837.75;;;18.13;92.52
69411;BME280;56604;48.652;9.194;2023-09-18T09:14:16;95832.38;;;18.35;93.28
69411;BME280;56604;48.652;9.194;2023-09-18T09:16:47;95827.00;;;18.18;93.14
69411;BME280;56604;48.652;9.194;2023-09-18T09:19:15;95828.34;;;18.47;93.01
69411;BME280;56604;48.652;9.194;2023-09-18T09:21:41;95824.16;;;18.63;92.91
69411;BME280;56604;48.652;9.194;2023-09-18T09:24:08;95813.63;;;18.58;91.94
69411;BME280;56604;48.652;9.194;2023-09-18T09:26:36;95799.03;;;18.38;92.54
69411;BME280;56604;48.652;9.194;2023-09-18T09:29:15;95794.78;;;18.28;92.21
69411;BME280;56604;48.652;9.194;2023-09-18T09:31:43;95802.34;;;18.43;91.64
69411;BME280;56604;48.652;9.194;2023-09-18T09:34:08;95796.06;;;18.39;91.96
69411;BME280;56604;48.652;9.194;2023-09-18T09:36:34;95811.75;;;18.50;91.78
69411;BME280;56604;48.652;9.194;2023-09-18T09:38:59;95819.22;;;18.30;92.46
69411;BME280;56604;48.652;9.194;2023-09-18T09:41:25;95822.09;;;18.60;91.68
69411;BME280;56604;48.652;9.194;2023-09-18T09:43:54;95805.56;;;18.98;90.25
69411;BME280;56604;48.652;9.194;2023-09-18T09:46:22;95813.41;;;19.03;90.00
69411;BME280;56604;48.652;9.194;2023-09-18T09:49:05;95806.97;;;18.86;90.48
69411;BME280;56604;48.652;9.194;2023-09-18T09:51:31;95799.31;;;19.11;90.37
69411;BME280;56604;48.652;9.194;2023-09-18T09:53:57;95800.56;;;19.05;89.15
69411;BME280;56604;48.652;9.194;2023-09-18T09:56:55;95795.88;;;19.02;89.60
69411;BME280;56604;48.652;9.194;2023-09-18T09:59:21;95809.47;;;18.83;90.48
69411;BME280;56604;48.652;9.194;2023-09-18T10:01:47;95824.41;;;18.93;92.08
69411;BME280;56604;48.652;9.194;2023-09-18T10:04:16;95825.94;;;18.94;91.54
69411;BME280;56604;48.652;9.194;2023-09-18T10:07:06;95834.31;;;18.61;92.62
69411;BME280;56604;48.652;9.194;2023-09-18T10:09:34;95832.59;;;18.48;91.54
69411;BME280;56604;48.652;9.194;2023-09-18T10:12:01;95831.97;;;18.59;91.11
69411;BME280;56604;48.652;9.194;2023-09-18T10:14:31;95824.59;;;18.48;92.28
69411;BME280;56604;48.652;9.194;2023-09-18T10:16:59;95818.31;;;18.43;93.28
69411;BME280;56604;48.652;9.194;2023-09-18T10:19:38;95810.84;;;18.63;90.51
69411;BME280;56604;48.652;9.194;2023-09-18T10:24:37;95835.53;;;18.37;91.14
69411;BME280;56604;48.652;9.194;2023-09-18T10:27:04;95881.88;;;18.76;90.25
69411;BME280;56604;48.652;9.194;2023-09-18T10:29:33;95883.75;;;18.84;89.33
69411;BME280;56604;48.652;9.194;2023-09-18T10:32:03;95893.59;;;18.84;89.56
69411;BME280;56604;48.652;9.194;2023-09-18T10:34:30;95881.75;;;18.99;89.27
69411;BME280;56604;48.652;9.194;2023-09-18T10:36:57;95887.38;;;18.97;89.65
69411;BME280;56604;48.652;9.194;2023-09-18T10:39:25;95880.03;;;19.12;89.31
69411;BME280;56604;48.652;9.194;2023-09-18T10:41:52;95867.66;;;19.07;87.73
69411;BME280;56604;48.652;9.194;2023-09-18T10:44:19;95877.84;;;19.14;87.72
69411;BME280;56604;48.652;9.194;2023-09-18T10:46:48;95877.53;;;19.24;87.20
69411;BME280;56604;48.652;9.194;2023-09-18T10:49:15;95860.75;;;19.06;88.06
69411;BME280;56604;48.652;9.194;2023-09-18T10:51:40;95870.31;;;19.16;87.40
69411;BME280;56604;48.652;9.194;2023-09-18T10:54:12;95860.44;;;19.16;87.06
69411;BME280;56604;48.652;9.194;2023-09-18T10:56:40;95852.91;;;19.01;87.65
69411;BME280;56604;48.652;9.194;2023-09-18T10:59:07;95850.41;;;18.96;87.75
69411;BME280;56604;48.652;9.194;2023-09-18T11:01:33;95855.56;;;18.43;90.11
69411;BME280;56604;48.652;9.194;2023-09-18T11:04:03;95841.38;;;18.65;89.66
69411;BME280;56604;48.652;9.194;2023-09-18T11:06:29;95853.75;;;18.53;89.66
69411;BME280;56604;48.652;9.194;2023-09-18T11:09:07;95853.22;;;18.42;90.26
69411;BME280;56604;48.652;9.194;2023-09-18T11:11:34;95855.25;;;18.36;90.84
69411;BME280;56604;48.652;9.194;2023-09-18T11:14:00;95848.00;;;18.28;91.18
69411;BME280;56604;48.652;9.194;2023-09-18T11:18:53;95852.09;;;18.34;91.80
69411;BME280;56604;48.652;9.194;2023-09-18T11:21:23;95857.56;;;18.29;92.13
69411;BME280;56604;48.652;9.194;2023-09-18T11:23:58;95867.00;;;18.44;91.85
69411;BME280;56604;48.652;9.194;2023-09-18T11:26:23;95857.28;;;18.39;92.57
69411;BME280;56604;48.652;9.194;2023-09-18T11:28:48;95838.72;;;18.57;91.87
69411;BME280;56604;48.652;9.194;2023-09-18T11:31:15;95814.84;;;18.34;92.82
69411;BME280;56604;48.652;9.194;2023-09-18T11:33:42;95831.91;;;18.33;92.27
69411;BME280;56604;48.652;9.194;2023-09-18T11:36:15;95843.97;;;18.39;91.56
69411;BME280;56604;48.652;9.194;2023-09-18T11:39:00;95843.56;;;18.63;91.41
69411;BME280;56604;48.652;9.194;2023-09-18T11:41:35;95859.88;;;18.62;89.97
69411;BME280;56604;48.652;9.194;2023-09-18T11:46:38;95867.97;;;18.48;90.21
69411;BME280;56604;48.652;9.194;2023-09-18T11:49:06;95862.81;;;18.52;89.32
69411;BME280;56604;48.652;9.194;2023-09-18T11:51:32;95844.06;;;18.65;89.96
69411;BME280;56604;48.652;9.194;2023-09-18T11:53:58;95854.69;;;18.57;88.78
69411;BME280;56604;48.652;9.194;2023-09-18T11:56:24;95858.44;;;18.56;89.13
69411;BME280;56604;48.652;9.194;2023-09-18T11:58:51;95853.59;;;18.66;89.72
69411;BME280;56604;48.652;9.194;2023-09-18T12:01:20;95851.53;;;18.55;88.81
69411;BME280;56604;48.652;9.194;2023-09-18T12:03:53;95866.00;;;18.71;90.66
69411;BME280;56604;48.652;9.194;2023-09-18T12:06:19;95865.50;;;18.60;89.93
69411;BME280;56604;48.652;9.194;2023-09-18T12:08:45;95858.75;;;18.63;90.03
69411;BME280;56604;48.652;9.194;2023-09-18T12:11:12;95855.22;;;18.76;88.95
69411;BME280;56604;48.652;9.194;2023-09-18T12:13:42;95832.34;;;18.84;88.48
69411;BME280;56604;48.652;9.194;2023-09-18T12:16:07;95828.28;;;18.86;88.67
69411;BME280;56604;48.652;9.194;2023-09-18T12:18:34;95819.97;;;18.79;88.54
69411;BME280;56604;48.652;9.194;2023-09-18T12:21:02;95822.78;;;18.74;88.45
69411;BME280;56604;48.652;9.194;2023-09-18T12:23:37;95827.50;;;18.95;88.37
69411;BME280;56604;48.652;9.194;2023-09-18T12:26:03;95833.31;;;18.88;88.62
69411;BME280;56604;48.652;9.194;2023-09-18T12:28:31;95811.22;;;19.05;87.12
69411;BME280;56604;48.652;9.194;2023-09-18T12:30:56;95819.69;;;19.16;87.04
69411;BME280;56604;48.652;9.194;2023-09-18T12:33:24;95815.00;;;19.21;86.80
69411;BME280;56604;48.652;9.194;2023-09-18T12:35:50;95808.06;;;19.38;87.34
69411;BME280;56604;48.652;9.194;2023-09-18T12:38:18;95797.06;;;19.65;84.60
69411;BME280;56604;48.652;9.194;2023-09-18T12:40:48;95811.78;;;19.71;85.73
69411;BME280;56604;48.652;9.194;2023-09-18T12:43:14;95816.22;;;20.06;82.85
69411;BME280;56604;48.652;9.194;2023-09-18T12:45:43;95824.19;;;20.14;83.04
69411;BME280;56604;48.652;9.194;2023-09-18T12:48:09;95830.06;;;19.99;82.82
69411;BME280;56604;48.652;9.194;2023-09-18T12:50:35;95824.19;;;20.14;81.70
69411;BME280;56604;48.652;9.194;2023-09-18T12:53:11;95824.50;;;20.21;80.97
69411;BME280;56604;48.652;9.194;2023-09-18T12:55:37;95825.97;;;20.40;80.06
69411;BME280;56604;48.652;9.194;2023-09-18T12:58:03;95824.88;;;20.41;80.47
69411;BME280;56604;48.652;9.194;2023-09-18T13:00:32;95820.63;;;20.99;79.18
69411;BME280;56604;48.652;9.194;2023-09-18T13:02:58;95804.56;;;21.20;77.46
69411;BME280;56604;48.652;9.194;2023-09-18T13:05:24;95807.97;;;21.08;77.26